< < Back
Terminal Aerodrome Forecast


Current Version              Previous Versions:   1  2  3  4  5  6  7  8  9  

Terminal Aerodrome Forecast

246
FTUS42 KILM 261749 CCB
TAFFLO
TAF COR
KFLO 261749Z 2618/2718 21011G16KT P6SM SCT030 BKN100
     FM270400 23008KT 3SM -SHRA BR SCT015 BKN025
      TEMPO 2709/2713 1SM TSRA SCT007 BKN015CB
     FM271500 32013G17KT 2SM -RA BR OVC010=

Latest METAR

372
SAUS70 KWBC 262300
MTRFLO
METAR KFLO 262253Z 19007KT 10SM CLR 23/14 A2979 RMK AO2 SLP084
T02330139


USA.gov is the U.S. government's official web portal to all federal, state and local government web resources and services.